Time;durP1;ratioP1;P1;durP2;ratioP2;P2;SDS_P1;SDS_P2;PMS_P1;PMS_P2;Temp;Humidity;BMP_temperature;BMP_pressure;BME280_temperature;BME280_humidity;BME280_pressure;Samples;Min_cycle;Max_cycle;Signal;HPM_P1;HPM_P2
2021/05/04 00:02:03;;;;;;;;;;;;;;;4.27;82.12;100773.49;1618432;87;20143;-77
2021/05/04 00:04:29;;;;;;;;;;;;;;;4.25;82.06;100764.52;1648759;85;20481;-77
2021/05/04 00:06:55;;;;;;;;;;;;;;;4.25;82.07;100766.22;1645018;86;20233;-77
2021/05/04 00:09:22;;;;;;;;;;;;;;;4.24;82.14;100765.78;1637371;86;20184;-77
2021/05/04 00:11:47;;;;;;;;;;;;;;;4.26;82.12;100766.66;1626363;86;20298;-77
2021/05/04 00:14:14;;;;;;;;;;;;;;;4.25;82.14;100763.23;1619404;87;20188;-77
2021/05/04 00:16:41;;;;;;;;;;;;;;;4.26;82.26;100761.53;1604273;87;20168;-77
2021/05/04 00:19:06;;;;;;;;;;;;;;;4.26;82.18;100765.38;1615961;87;20380;-77
2021/05/04 00:21:32;;;;;;;;;;;;;;;4.23;82.09;100761.50;1612602;87;20178;-77
2021/05/04 00:23:59;;;;;;;;;;;;;;;4.19;82.09;100763.16;1666885;85;21062;-77
2021/05/04 00:26:25;;;;;;;;;;;;;;;4.17;82.13;100756.30;1638699;86;20185;-77
2021/05/04 00:28:51;;;;;;;;;;;;;;;4.12;82.04;100757.98;1658298;86;20477;-77
2021/05/04 00:31:17;;;;;;;;;;;;;;;4.09;82.12;100749.84;1672662;85;20252;-77
2021/05/04 00:33:43;;;;;;;;;;;;;;;4.06;82.09;100751.50;1659229;85;20234;-77
2021/05/04 00:36:09;;;;;;;;;;;;;;;4.04;82.25;100750.20;1651692;85;20247;-77
2021/05/04 00:38:38;;;;;;;;;;;;;;;4.01;82.14;100741.63;1642969;85;20259;-77
2021/05/04 00:41:04;;;;;;;;;;;;;;;3.98;82.22;100738.20;1678071;85;20261;-77
2021/05/04 00:43:32;;;;;;;;;;;;;;;3.95;82.19;100734.73;1662288;85;20165;-77
2021/05/04 00:46:04;;;;;;;;;;;;;;;3.93;82.27;100723.62;1670252;85;20473;-77
2021/05/04 00:48:31;;;;;;;;;;;;;;;3.90;82.31;100722.30;1666737;85;20250;-77
2021/05/04 00:51:00;;;;;;;;;;;;;;;3.85;82.22;100716.27;1630522;85;20184;-78
2021/05/04 00:53:26;;;;;;;;;;;;;;;3.82;82.23;100711.11;1660104;85;20159;-77
2021/05/04 00:55:52;;;;;;;;;;;;;;;3.80;82.25;100707.68;1669466;85;20811;-77
2021/05/04 00:58:18;;;;;;;;;;;;;;;3.74;82.15;100700.78;1643195;87;20461;-77
2021/05/04 01:00:44;;;;;;;;;;;;;;;3.68;82.10;100701.98;1656178;85;20202;-77
2021/05/04 01:03:11;;;;;;;;;;;;;;;3.64;82.18;100700.22;1663991;85;20293;-77
2021/05/04 01:05:38;;;;;;;;;;;;;;;3.59;82.17;100696.36;1656249;85;20463;-77
2021/05/04 01:08:04;;;;;;;;;;;;;;;3.56;82.22;100691.63;1641523;85;20549;-77
2021/05/04 01:10:30;;;;;;;;;;;;;;;3.56;82.26;100694.18;1663566;85;20262;-77
2021/05/04 01:12:56;;;;;;;;;;;;;;;3.52;82.23;100692.42;1640617;85;21094;-77
2021/05/04 01:15:22;;;;;;;;;;;;;;;3.46;82.24;100687.22;1668601;85;20846;-77
2021/05/04 01:17:48;;;;;;;;;;;;;;;3.43;82.21;100683.34;1678232;85;20455;-77
2021/05/04 01:20:20;;;;;;;;;;;;;;;3.41;82.26;100676.07;1658793;85;20439;-77
2021/05/04 01:22:46;;;;;;;;;;;;;;;3.37;82.27;100670.47;1668401;85;20207;-77
2021/05/04 01:25:13;;;;;;;;;;;;;;;3.33;82.34;100672.13;1661352;85;20215;-77
2021/05/04 01:27:45;;;;;;;;;;;;;;;3.32;82.30;100669.12;1664546;84;20832;-77
2021/05/04 01:30:12;;;;;;;;;;;;;;;3.27;82.33;100664.37;1689548;84;20755;-77
2021/05/04 01:32:38;;;;;;;;;;;;;;;3.26;82.40;100667.77;1646302;84;20735;-77
2021/05/04 01:35:08;;;;;;;;;;;;;;;3.24;82.38;100659.22;1678685;84;20217;-77
2021/05/04 01:37:36;;;;;;;;;;;;;;;3.21;82.37;100665.56;1652102;86;20262;-77
2021/05/04 01:40:04;;;;;;;;;;;;;;;3.18;82.34;100660.41;1621187;86;20466;-77
2021/05/04 01:42:30;;;;;;;;;;;;;;;3.14;82.32;100659.50;1651049;86;20509;-77
2021/05/04 01:44:56;;;;;;;;;;;;;;;3.11;82.38;100660.77;1641655;86;20732;-77
2021/05/04 01:47:22;;;;;;;;;;;;;;;3.08;82.41;100658.58;1656470;84;20297;-77
2021/05/04 01:49:48;;;;;;;;;;;;;;;3.03;82.33;100649.57;1628630;86;20335;-77
2021/05/04 01:52:14;;;;;;;;;;;;;;;2.95;82.20;100644.34;1672488;85;20229;-77
2021/05/04 01:54:40;;;;;;;;;;;;;;;2.91;82.29;100645.12;1662410;86;20800;-77
2021/05/04 01:57:07;;;;;;;;;;;;;;;2.89;82.37;100644.25;1659029;86;20296;-77
2021/05/04 01:59:33;;;;;;;;;;;;;;;2.86;82.39;100639.52;1656728;84;20300;-77
2021/05/04 02:01:59;;;;;;;;;;;;;;;2.85;82.31;100639.07;1652391;86;20850;-77
2021/05/04 02:04:30;;;;;;;;;;;;;;;2.82;82.44;100636.47;1645654;86;20596;-77
2021/05/04 02:06:54;;;;;;;;;;;;;;;2.79;82.32;100630.03;1665524;85;20606;-77
2021/05/04 02:09:20;;;;;;;;;;;;;;;2.75;82.24;100619.33;1660555;84;20215;-77
2021/05/04 02:11:52;;;;;;;;;;;;;;;2.74;82.42;100618.47;1682218;84;20517;-77
2021/05/04 02:14:18;;;;;;;;;;;;;;;2.76;82.56;100614.67;1663812;84;20283;-77
2021/05/04 02:16:44;;;;;;;;;;;;;;;2.76;82.56;100605.73;1668348;85;21462;-77
2021/05/04 02:19:23;;;;;;;;;;;;;;;2.74;82.38;100603.57;1656820;84;20968;-77
2021/05/04 02:21:49;;;;;;;;;;;;;;;2.68;82.36;100606.89;1664994;85;20307;-77
2021/05/04 02:24:15;;;;;;;;;;;;;;;2.65;82.32;100599.18;1660816;85;20973;-77
2021/05/04 02:26:43;;;;;;;;;;;;;;;2.63;82.38;100596.60;1660984;85;20595;-77
2021/05/04 02:29:09;;;;;;;;;;;;;;;2.63;82.41;100597.02;1674221;83;20260;-77
2021/05/04 02:31:35;;;;;;;;;;;;;;;2.62;82.36;100602.55;1660831;85;20640;-77
2021/05/04 02:34:01;;;;;;;;;;;;;;;2.60;82.32;100589.34;1650681;85;21072;-77
2021/05/04 02:36:27;;;;;;;;;;;;;;;2.58;82.36;100580.39;1674795;85;20323;-77
2021/05/04 02:38:55;;;;;;;;;;;;;;;2.57;82.34;100578.67;1667231;85;21045;-77
2021/05/04 02:41:21;;;;;;;;;;;;;;;2.56;82.39;100574.41;1656438;85;20310;-77
2021/05/04 02:43:47;;;;;;;;;;;;;;;2.58;82.43;100568.05;1673619;85;21502;-77
2021/05/04 02:46:17;;;;;;;;;;;;;;;2.57;82.33;100562.08;1674576;85;20589;-77
2021/05/04 02:48:46;;;;;;;;;;;;;;;2.56;82.43;100559.09;1666044;85;20620;-77
2021/05/04 02:51:12;;;;;;;;;;;;;;;2.59;82.42;100554.45;1651376;85;20231;-77
2021/05/04 02:53:46;;;;;;;;;;;;;;;2.59;82.46;100552.75;1652578;85;20297;-77
2021/05/04 02:56:12;;;;;;;;;;;;;;;2.59;82.30;100546.38;1664500;85;21207;-77
2021/05/04 02:58:38;;;;;;;;;;;;;;;2.59;82.34;100542.96;1665160;85;21538;-77
2021/05/04 03:01:13;;;;;;;;;;;;;;;2.62;82.47;100545.11;1649877;85;20493;-77
2021/05/04 03:03:40;;;;;;;;;;;;;;;2.65;82.48;100538.77;1643958;85;20528;-77
2021/05/04 03:06:06;;;;;;;;;;;;;;;2.69;82.48;100541.38;1643767;85;20762;-77
2021/05/04 03:08:33;;;;;;;;;;;;;;;2.70;82.42;100531.60;1654989;85;20304;-77
2021/05/04 03:10:59;;;;;;;;;;;;;;;2.73;82.47;100529.95;1673322;83;20305;-77
2021/05/04 03:13:29;;;;;;;;;;;;;;;2.75;82.46;100528.70;1645202;85;20582;-77
2021/05/04 03:15:56;;;;;;;;;;;;;;;2.79;82.58;100521.52;1654454;85;20610;-77
2021/05/04 03:18:22;;;;;;;;;;;;;;;2.83;82.56;100523.28;1666375;85;20315;-77
2021/05/04 03:20:49;;;;;;;;;;;;;;;2.85;82.46;100517.78;1641782;85;20200;-77
2021/05/04 03:23:15;;;;;;;;;;;;;;;2.86;82.51;100511.41;1657802;85;21048;-77
2021/05/04 03:25:42;;;;;;;;;;;;;;;2.88;82.50;100509.73;1651908;85;20303;-77
2021/05/04 03:28:16;;;;;;;;;;;;;;;2.91;82.50;100502.13;1674100;85;20497;-77
2021/05/04 03:30:42;;;;;;;;;;;;;;;2.94;82.49;100501.30;1666071;85;20592;-77
2021/05/04 03:33:08;;;;;;;;;;;;;;;2.95;82.48;100498.77;1645665;85;20487;-77
2021/05/04 03:35:38;;;;;;;;;;;;;;;2.98;82.54;100498.81;1677081;85;20480;-77
2021/05/04 03:38:04;;;;;;;;;;;;;;;3.01;82.49;100492.88;1670040;85;20259;-77
2021/05/04 03:40:30;;;;;;;;;;;;;;;3.05;82.54;100493.78;1664793;85;20666;-77
2021/05/04 03:42:57;;;;;;;;;;;;;;;3.08;82.64;100488.29;1664049;85;20452;-77
2021/05/04 03:45:23;;;;;;;;;;;;;;;3.12;82.59;100484.91;1673525;85;20215;-77
2021/05/04 03:47:49;;;;;;;;;;;;;;;3.15;82.58;100474.72;1654513;85;20736;-77
2021/05/04 03:50:17;;;;;;;;;;;;;;;3.19;82.60;100471.78;1663208;85;20614;-77
2021/05/04 03:52:43;;;;;;;;;;;;;;;3.23;82.65;100468.42;1670136;85;20273;-77
2021/05/04 03:55:10;;;;;;;;;;;;;;;3.26;82.55;100468.45;1667821;85;20154;-77
2021/05/04 03:57:36;;;;;;;;;;;;;;;3.28;82.57;100466.36;1637190;85;20455;-77
2021/05/04 04:00:06;;;;;;;;;;;;;;;3.32;82.65;100462.14;1677004;85;20450;-77
2021/05/04 04:02:33;;;;;;;;;;;;;;;3.36;82.60;100454.09;1642327;85;20455;-77
2021/05/04 04:04:59;;;;;;;;;;;;;;;3.40;82.59;100459.25;1645001;85;20484;-77
2021/05/04 04:07:25;;;;;;;;;;;;;;;3.44;82.65;100450.77;1678165;85;20740;-77
2021/05/04 04:09:52;;;;;;;;;;;;;;;3.47;82.60;100448.24;1678199;85;20735;-77
2021/05/04 04:12:18;;;;;;;;;;;;;;;3.53;82.58;100447.45;1638815;85;20297;-77
2021/05/04 04:14:44;;;;;;;;;;;;;;;3.56;82.63;100438.53;1674115;85;20871;-77
2021/05/04 04:17:10;;;;;;;;;;;;;;;3.62;82.61;100437.31;1674947;85;20794;-77
2021/05/04 04:19:36;;;;;;;;;;;;;;;3.64;82.58;100424.09;1667798;85;20804;-77
2021/05/04 04:22:02;;;;;;;;;;;;;;;3.69;82.63;100424.98;1657756;85;20741;-77
2021/05/04 04:24:28;;;;;;;;;;;;;;;3.75;82.62;100417.80;1660387;85;20394;-77
2021/05/04 04:26:55;;;;;;;;;;;;;;;3.78;82.63;100413.56;1665783;82;179581;-77
2021/05/04 04:29:20;;;;;;;;;;;;;;;3.82;82.54;100412.74;1675640;84;20260;-77
2021/05/04 04:31:46;;;;;;;;;;;;;;;3.87;82.59;100407.66;1670100;84;20339;-75
2021/05/04 04:34:12;;;;;;;;;;;;;;;3.91;82.60;100413.23;1677442;84;20332;-75
2021/05/04 04:36:38;;;;;;;;;;;;;;;3.94;82.64;100406.45;1679633;84;20228;-75
2021/05/04 04:39:05;;;;;;;;;;;;;;;3.99;82.60;100403.50;1678184;84;20228;-76
2021/05/04 04:41:31;;;;;;;;;;;;;;;4.04;82.55;100397.14;1679441;84;20996;-75
2021/05/04 04:43:57;;;;;;;;;;;;;;;4.11;82.60;100397.61;1673848;84;20217;-75
2021/05/04 04:46:23;;;;;;;;;;;;;;;4.18;82.67;100396.78;1672764;84;20298;-76
2021/05/04 04:48:49;;;;;;;;;;;;;;;4.24;82.64;100396.81;1682464;85;20449;-75
2021/05/04 04:51:15;;;;;;;;;;;;;;;4.30;82.60;100391.73;1672840;84;20209;-76
2021/05/04 04:53:41;;;;;;;;;;;;;;;4.37;82.62;100386.23;1684377;84;20261;-76
2021/05/04 04:56:07;;;;;;;;;;;;;;;4.44;82.59;100376.88;1688070;84;20587;-76
2021/05/04 04:58:33;;;;;;;;;;;;;;;4.51;82.59;100369.66;1693075;84;20218;-76
2021/05/04 05:00:59;;;;;;;;;;;;;;;4.55;82.53;100365.84;1678786;83;20450;-76
2021/05/04 05:03:25;;;;;;;;;;;;;;;4.60;82.53;100359.03;1678159;84;20245;-75
2021/05/04 05:05:51;;;;;;;;;;;;;;;4.69;82.59;100354.77;1679523;84;20300;-75
2021/05/04 05:08:17;;;;;;;;;;;;;;;4.76;82.63;100353.52;1681428;84;21094;-75
2021/05/04 05:10:43;;;;;;;;;;;;;;;4.87;82.65;100352.27;1669166;84;20278;-76
2021/05/04 05:13:09;;;;;;;;;;;;;;;4.98;82.67;100349.31;1676339;84;20195;-77
2021/05/04 05:15:39;;;;;;;;;;;;;;;5.10;82.59;100352.33;1687352;84;20206;-76
2021/05/04 05:18:05;;;;;;;;;;;;;;;5.20;82.65;100338.22;1682845;84;20281;-77
2021/05/04 05:20:33;;;;;;;;;;;;;;;5.37;82.62;100337.39;1676955;84;20294;-77
2021/05/04 05:22:59;;;;;;;;;;;;;;;5.52;82.61;100336.11;1677937;84;20452;-76
2021/05/04 05:25:25;;;;;;;;;;;;;;;5.74;82.76;100333.94;1674956;84;20276;-76
2021/05/04 05:27:51;;;;;;;;;;;;;;;5.98;82.65;100331.38;1688185;84;20183;-76
2021/05/04 05:30:21;;;;;;;;;;;;;;;6.27;82.77;100323.58;1664851;84;20254;-76
2021/05/04 05:32:47;;;;;;;;;;;;;;;6.53;82.53;100319.63;1668518;84;20248;-75
2021/05/04 05:35:13;;;;;;;;;;;;;;;6.72;82.39;100316.98;1563250;82;10001347;-75
2021/05/04 05:37:39;;;;;;;;;;;;;;;6.85;82.24;100305.74;1675553;84;20174;-75
2021/05/04 05:40:06;;;;;;;;;;;;;;;6.93;82.08;100298.84;1668896;84;20271;-75
2021/05/04 05:42:35;;;;;;;;;;;;;;;6.99;81.97;100301.37;1670799;84;20253;-75
2021/05/04 05:45:01;;;;;;;;;;;;;;;7.05;81.87;100295.34;1672232;84;20248;-75
2021/05/04 05:47:27;;;;;;;;;;;;;;;7.06;81.81;100291.47;1670393;84;20211;-76
2021/05/04 05:49:59;;;;;;;;;;;;;;;7.14;81.88;100292.70;1670996;84;20549;-75
2021/05/04 05:52:25;;;;;;;;;;;;;;;7.23;81.90;100286.21;1674599;84;20276;-76
2021/05/04 05:54:51;;;;;;;;;;;;;;;7.31;81.88;100286.55;1674141;84;20284;-75
2021/05/04 05:57:18;;;;;;;;;;;;;;;7.46;82.04;100280.85;1674887;84;20301;-75
2021/05/04 05:59:44;;;;;;;;;;;;;;;7.55;81.85;100280.77;1666963;84;20452;-75
2021/05/04 06:02:09;;;;;;;;;;;;;;;7.67;81.88;100279.38;1670829;84;20715;-75
2021/05/04 06:04:35;;;;;;;;;;;;;;;7.84;81.86;100276.61;1671763;84;20201;-75
2021/05/04 06:07:02;;;;;;;;;;;;;;;7.96;81.74;100270.05;1670132;84;20185;-76
2021/05/04 06:09:28;;;;;;;;;;;;;;;8.12;81.72;100269.00;1662459;84;20299;-76
2021/05/04 06:11:54;;;;;;;;;;;;;;;8.27;81.77;100258.96;1678084;84;20201;-76
2021/05/04 06:14:20;;;;;;;;;;;;;;;8.44;81.79;100254.89;1666837;84;20242;-76
2021/05/04 06:16:46;;;;;;;;;;;;;;;8.69;81.78;100248.53;1665767;84;20197;-75
2021/05/04 06:19:12;;;;;;;;;;;;;;;8.92;81.70;100247.73;1654467;84;20223;-75
2021/05/04 06:21:38;;;;;;;;;;;;;;;9.12;81.64;100242.27;1657917;84;20194;-75
2021/05/04 06:24:05;;;;;;;;;;;;;;;9.28;81.36;100235.13;1666507;84;20282;-76
2021/05/04 06:26:34;;;;;;;;;;;;;;;9.38;81.30;100234.51;1654337;84;20270;-76
2021/05/04 06:29:02;;;;;;;;;;;;;;;9.49;81.23;100224.85;1662037;84;20257;-75
2021/05/04 06:31:28;;;;;;;;;;;;;;;9.57;81.18;100216.53;1662464;84;20198;-76
2021/05/04 06:33:54;;;;;;;;;;;;;;;9.62;81.07;100216.01;1673363;84;20221;-76
2021/05/04 06:36:20;;;;;;;;;;;;;;;9.70;81.16;100212.84;1660101;85;20211;-76
2021/05/04 06:38:46;;;;;;;;;;;;;;;9.84;81.11;100206.98;1650409;85;20294;-76
2021/05/04 06:41:12;;;;;;;;;;;;;;;10.10;81.36;100194.81;1653975;84;20276;-76
2021/05/04 06:43:38;;;;;;;;;;;;;;;10.40;81.27;100186.84;1657017;84;20265;-75
2021/05/04 06:46:05;;;;;;;;;;;;;;;10.66;81.10;100187.55;1671989;84;20263;-75
2021/05/04 06:48:31;;;;;;;;;;;;;;;10.81;80.93;100182.47;1653759;84;20272;-76
2021/05/04 06:50:57;;;;;;;;;;;;;;;10.97;80.78;100182.92;1664772;84;20199;-75
2021/05/04 06:53:25;;;;;;;;;;;;;;;11.04;80.57;100179.30;1668019;84;20266;-76
2021/05/04 06:55:51;;;;;;;;;;;;;;;11.11;80.53;100176.97;1655001;84;20270;-73
2021/05/04 06:58:17;;;;;;;;;;;;;;;11.26;80.50;100163.64;1644468;84;20252;-73
2021/05/04 07:00:43;;;;;;;;;;;;;;;11.30;80.34;100172.17;1652184;84;20287;-73
2021/05/04 07:03:09;;;;;;;;;;;;;;;11.37;80.40;100162.91;1658261;84;20228;-72
2021/05/04 07:05:35;;;;;;;;;;;;;;;11.49;80.42;100160.41;1656549;84;20253;-73
2021/05/04 07:08:02;;;;;;;;;;;;;;;11.51;80.17;100162.07;1663420;84;20509;-73
2021/05/04 07:10:28;;;;;;;;;;;;;;;11.50;80.19;100157.78;1669437;84;20270;-73
2021/05/04 07:12:54;;;;;;;;;;;;;;;11.46;80.14;100144.96;1651753;85;20257;-74
2021/05/04 07:15:20;;;;;;;;;;;;;;;11.44;80.32;100138.98;1668418;84;20204;-74
2021/05/04 07:17:46;;;;;;;;;;;;;;;11.49;80.18;100143.58;1660437;84;20265;-74
2021/05/04 07:20:22;;;;;;;;;;;;;;;11.44;79.92;100133.35;1654403;85;20274;-74
2021/05/04 07:22:53;;;;;;;;;;;;;;;11.44;80.19;100128.17;1661384;85;20908;-73
2021/05/04 07:25:16;;;;;;;;;;;;;;;11.45;80.12;100115.63;1660678;84;20255;-73
2021/05/04 07:27:44;;;;;;;;;;;;;;;11.42;79.85;100111.87;1666014;84;20254;-73
2021/05/04 07:30:10;;;;;;;;;;;;;;;11.43;79.92;100108.39;1668740;84;20261;-73
2021/05/04 07:32:36;;;;;;;;;;;;;;;11.53;80.10;100114.98;1688629;83;483349;-75
2021/05/04 07:35:15;;;;;;;;;;;;;;;11.56;79.81;100101.09;1699003;83;20478;-75
2021/05/04 07:37:41;;;;;;;;;;;;;;;11.60;79.70;100092.35;1714910;83;20266;-75
2021/05/04 07:40:08;;;;;;;;;;;;;;;11.65;79.77;100076.69;1700244;83;20253;-76
2021/05/04 07:42:34;;;;;;;;;;;;;;;11.68;79.65;100077.89;1683308;83;20269;-75
2021/05/04 07:45:00;;;;;;;;;;;;;;;11.68;79.49;100077.89;1688647;83;20245;-75
2021/05/04 07:47:28;;;;;;;;;;;;;;;11.73;79.53;100069.09;1698646;83;20582;-75
2021/05/04 07:49:55;;;;;;;;;;;;;;;11.79;79.57;100067.65;1685913;82;20302;-76
2021/05/04 07:52:22;;;;;;;;;;;;;;;11.73;79.12;100060.03;1684022;83;20181;-75
2021/05/04 07:54:48;;;;;;;;;;;;;;;11.75;79.39;100061.28;1703555;83;20464;-75
2021/05/04 07:57:14;;;;;;;;;;;;;;;11.77;79.47;100056.94;1681191;83;20323;-75
2021/05/04 07:59:40;;;;;;;;;;;;;;;11.80;79.29;100049.92;1693376;83;20227;-75
2021/05/04 08:02:06;;;;;;;;;;;;;;;11.84;79.33;100046.79;1682318;83;20279;-75
2021/05/04 08:04:32;;;;;;;;;;;;;;;11.91;79.32;100050.45;1667091;83;20184;-75
2021/05/04 08:07:01;;;;;;;;;;;;;;;11.95;79.16;100036.95;1686265;82;20253;-75
2021/05/04 08:09:35;;;;;;;;;;;;;;;11.95;79.00;100038.25;1691094;83;20275;-76
2021/05/04 08:12:01;;;;;;;;;;;;;;;11.97;78.85;100015.70;1684768;83;20275;-76
2021/05/04 08:14:27;;;;;;;;;;;;;;;11.96;78.72;100014.00;1688238;83;20191;-76
2021/05/04 08:16:55;;;;;;;;;;;;;;;11.93;78.76;100002.02;1681288;83;20259;-76
2021/05/04 08:19:21;;;;;;;;;;;;;;;11.96;78.86;99997.16;1691270;83;20257;-76
2021/05/04 08:21:49;;;;;;;;;;;;;;;12.02;78.72;99992.23;1682963;83;20271;-75
2021/05/04 08:24:15;;;;;;;;;;;;;;;12.07;78.73;99984.71;1689208;83;20275;-76
2021/05/04 08:26:42;;;;;;;;;;;;;;;12.13;78.64;99977.19;1685358;83;20276;-76
2021/05/04 08:29:08;;;;;;;;;;;;;;;12.21;78.35;99967.42;1644426;83;20228;-75
2021/05/04 08:31:35;;;;;;;;;;;;;;;12.30;78.49;99963.23;1689690;83;20309;-75
2021/05/04 08:34:01;;;;;;;;;;;;;;;12.35;78.36;99948.37;1693852;82;20259;-76
2021/05/04 08:36:29;;;;;;;;;;;;;;;12.39;78.22;99953.84;1691092;83;20184;-76
2021/05/04 08:38:55;;;;;;;;;;;;;;;12.42;78.14;99952.45;1683652;83;20287;-75
2021/05/04 08:41:22;;;;;;;;;;;;;;;12.51;78.11;99941.73;1683754;83;20565;-76
2021/05/04 08:43:49;;;;;;;;;;;;;;;12.59;78.04;99948.80;1690584;83;20264;-76
2021/05/04 08:46:16;;;;;;;;;;;;;;;12.78;77.87;99939.07;1688115;83;20529;-76
2021/05/04 08:48:44;;;;;;;;;;;;;;;13.01;77.99;99935.16;1688270;83;20268;-75
2021/05/04 08:51:13;;;;;;;;;;;;;;;13.23;77.88;99923.56;1678639;83;20257;-76
2021/05/04 08:53:40;;;;;;;;;;;;;;;13.26;77.47;99933.84;1688614;83;20173;-76
2021/05/04 08:56:08;;;;;;;;;;;;;;;13.29;77.52;99905.16;1683691;83;20267;-76
2021/05/04 08:58:34;;;;;;;;;;;;;;;13.31;77.15;99909.84;1663197;83;20301;-76
2021/05/04 09:01:00;;;;;;;;;;;;;;;13.37;77.21;99903.12;1689649;83;20257;-75
2021/05/04 09:03:36;;;;;;;;;;;;;;;13.46;77.17;99886.33;1687607;83;20257;-76
2021/05/04 09:06:13;;;;;;;;;;;;;;;13.62;77.33;99889.14;1689969;83;20285;-76
2021/05/04 09:08:54;;;;;;;;;;;;;;;13.71;77.20;99879.67;1686019;83;20245;-76
2021/05/04 09:11:28;;;;;;;;;;;;;;;13.66;77.19;99869.47;1692691;83;20257;-75
2021/05/04 09:21:39;;;;;;;;;;;;;;;13.28;76.68;99851.99;1688295;83;20266;-75
2021/05/04 09:24:21;;;;;;;;;;;;;;;13.20;76.67;99833.66;1691402;83;20270;-74
2021/05/04 09:26:48;;;;;;;;;;;;;;;13.13;76.40;99842.56;1688414;83;20185;-74
2021/05/04 09:29:15;;;;;;;;;;;;;;;12.98;76.21;99825.02;1689976;83;20279;-74
2021/05/04 09:31:42;;;;;;;;;;;;;;;12.85;76.46;99808.22;1686576;83;20281;-74
2021/05/04 09:34:13;;;;;;;;;;;;;;;12.79;76.36;99800.67;1693658;83;20304;-74
2021/05/04 09:36:48;;;;;;;;;;;;;;;12.78;76.25;99790.75;1689178;83;20203;-74
2021/05/04 09:39:29;;;;;;;;;;;;;;;12.81;76.25;99778.11;1685799;83;20249;-75
2021/05/04 09:41:57;;;;;;;;;;;;;;;12.91;76.20;99776.85;1689932;83;20203;-76
2021/05/04 09:44:47;;;;;;;;;;;;;;;13.02;76.18;99774.66;1685950;83;20581;-76
2021/05/04 09:47:21;;;;;;;;;;;;;;;13.08;75.86;99774.86;1692264;83;20279;-76
2021/05/04 09:49:48;;;;;;;;;;;;;;;13.12;75.74;99760.41;1691124;83;20178;-75
2021/05/04 09:52:25;;;;;;;;;;;;;;;13.09;75.44;99759.23;1666724;83;20279;-76
2021/05/04 09:54:50;;;;;;;;;;;;;;;13.05;75.42;99744.69;1689236;83;20245;-75
2021/05/04 09:57:40;;;;;;;;;;;;;;;13.03;75.45;99740.01;1700449;83;20166;-75
2021/05/04 10:00:14;;;;;;;;;;;;;;;13.02;75.28;99729.23;1684633;83;20285;-75
2021/05/04 10:02:41;;;;;;;;;;;;;;;13.04;75.42;99736.51;1683506;83;20265;-75
2021/05/04 10:05:09;;;;;;;;;;;;;;;13.15;75.43;99721.80;1695241;83;20253;-75
2021/05/04 10:07:37;;;;;;;;;;;;;;;13.25;75.42;99712.77;1687363;82;20268;-75
2021/05/04 10:10:05;;;;;;;;;;;;;;;13.34;75.25;99724.52;1697356;83;20303;-75
2021/05/04 10:12:32;;;;;;;;;;;;;;;13.41;74.84;99709.92;1702067;83;20154;-75
2021/05/04 10:15:04;;;;;;;;;;;;;;;13.49;74.84;99707.00;1698303;83;20267;-75
2021/05/04 10:17:31;;;;;;;;;;;;;;;13.57;74.70;99697.10;1694509;83;20275;-75
2021/05/04 10:19:57;;;;;;;;;;;;;;;13.65;74.70;99690.28;1694650;83;20288;-74
2021/05/04 10:22:24;;;;;;;;;;;;;;;13.69;74.52;99680.98;1682551;83;20202;-74
2021/05/04 10:24:50;;;;;;;;;;;;;;;13.75;74.30;99678.58;1664231;83;20276;-75
2021/05/04 10:27:18;;;;;;;;;;;;;;;13.82;74.19;99670.45;1687413;83;20264;-75
2021/05/04 10:29:45;;;;;;;;;;;;;;;13.96;74.42;99656.84;1686832;83;20267;-74
2021/05/04 10:32:15;;;;;;;;;;;;;;;14.04;74.09;99661.20;1662604;84;20277;-74
2021/05/04 10:34:41;;;;;;;;;;;;;;;14.11;73.95;99663.07;1658491;84;20286;-75
2021/05/04 10:37:23;;;;;;;;;;;;;;;14.16;73.86;99652.00;1660182;84;20250;-75
2021/05/04 10:39:49;;;;;;;;;;;;;;;14.22;74.11;99654.33;1670805;84;20278;-74
2021/05/04 10:42:18;;;;;;;;;;;;;;;14.24;73.58;99645.54;1669258;84;20341;-74
2021/05/04 10:45:00;;;;;;;;;;;;;;;14.27;73.74;99633.31;1670194;84;20202;-75
2021/05/04 10:47:48;;;;;;;;;;;;;;;14.27;73.47;99638.05;1657706;84;20296;-75
2021/05/04 10:50:28;;;;;;;;;;;;;;;14.21;73.48;99625.34;1669785;84;20268;-72
2021/05/04 10:52:59;;;;;;;;;;;;;;;14.18;73.30;99615.08;1666018;84;20216;-74
2021/05/04 10:55:54;;;;;;;;;;;;;;;14.18;73.22;99617.22;1665164;84;20176;-75
2021/05/04 10:58:30;;;;;;;;;;;;;;;14.19;72.95;99616.31;1669762;84;20281;-75
2021/05/04 11:01:06;;;;;;;;;;;;;;;14.18;72.92;99613.32;1645475;84;20265;-74
2021/05/04 11:03:35;;;;;;;;;;;;;;;14.14;72.81;99600.53;1659890;84;20287;-74
2021/05/04 11:06:04;;;;;;;;;;;;;;;14.13;72.83;99606.65;1668185;84;20272;-74
2021/05/04 11:08:47;;;;;;;;;;;;;;;14.11;72.69;99595.02;1661740;84;21405;-74
2021/05/04 11:11:21;;;;;;;;;;;;;;;14.11;72.84;99588.52;1661679;84;20291;-74
2021/05/04 11:13:58;;;;;;;;;;;;;;;14.19;72.60;99575.16;1663310;84;20178;-76
2021/05/04 11:16:32;;;;;;;;;;;;;;;14.35;72.70;99570.08;1669459;84;20253;-74
2021/05/04 11:19:29;;;;;;;;;;;;;;;14.55;72.78;99560.89;1659086;84;20267;-74
2021/05/04 11:22:15;;;;;;;;;;;;;;;14.72;72.65;99550.46;1665782;84;20516;-74
2021/05/04 11:24:43;;;;;;;;;;;;;;;14.92;72.46;99542.11;1667592;84;20174;-74
2021/05/04 11:27:13;;;;;;;;;;;;;;;15.08;72.60;99545.13;1666038;84;20154;-74
2021/05/04 11:29:40;;;;;;;;;;;;;;;15.14;72.00;99550.02;1669350;84;20275;-74
2021/05/04 11:32:21;;;;;;;;;;;;;;;15.10;71.85;99552.40;1661174;84;20265;-73
2021/05/04 11:34:55;;;;;;;;;;;;;;;15.14;72.00;99551.78;1660240;84;20265;-71
2021/05/04 11:37:28;;;;;;;;;;;;;;;15.15;71.63;99541.29;1661877;84;20263;-73
2021/05/04 11:40:12;;;;;;;;;;;;;;;15.12;71.45;99545.35;1675280;84;20281;-72
2021/05/04 11:42:39;;;;;;;;;;;;;;;15.10;71.43;99562.81;1657897;84;20150;-73
2021/05/04 11:45:20;;;;;;;;;;;;;;;14.98;71.01;99562.62;1652754;84;20255;-74
2021/05/04 11:47:50;;;;;;;;;;;;;;;14.84;71.15;99573.27;1656893;84;20284;-74
2021/05/04 11:50:20;;;;;;;;;;;;;;;14.62;70.95;99589.56;1663304;84;20281;-74
2021/05/04 11:52:49;;;;;;;;;;;;;;;14.35;71.03;99608.63;1668719;84;20269;-74
2021/05/04 11:55:18;;;;;;;;;;;;;;;13.98;71.25;99612.13;1656008;84;20275;-74
2021/05/04 11:57:49;;;;;;;;;;;;;;;13.66;71.37;99612.28;1666012;84;20548;-74
2021/05/04 12:00:20;;;;;;;;;;;;;;;13.34;71.49;99630.59;1652922;84;20517;-74
2021/05/04 12:02:47;;;;;;;;;;;;;;;13.02;71.54;99657.02;1661158;84;20265;-74
2021/05/04 12:05:16;;;;;;;;;;;;;;;12.81;71.63;99649.23;1664747;84;20170;-74
2021/05/04 12:07:46;;;;;;;;;;;;;;;12.62;71.68;99669.03;1666075;84;20182;-73
2021/05/04 12:10:18;;;;;;;;;;;;;;;12.45;71.78;99667.58;1666177;84;20265;-73
2021/05/04 12:12:56;;;;;;;;;;;;;;;12.30;71.83;99671.59;1665453;84;20458;-73
2021/05/04 12:15:27;;;;;;;;;;;;;;;12.17;71.84;99668.63;1666926;84;20553;-74
2021/05/04 12:18:03;;;;;;;;;;;;;;;12.06;71.97;99668.63;1658257;84;20286;-73
2021/05/04 12:20:32;;;;;;;;;;;;;;;11.96;71.92;99663.42;1657744;84;645332;-74
2021/05/04 12:23:00;;;;;;;;;;;;;;;11.86;71.97;99661.61;1660155;85;20176;-73
2021/05/04 12:25:51;;;;;;;;;;;;;;;11.78;71.97;99664.48;1654866;85;20261;-74
2021/05/04 12:28:22;;;;;;;;;;;;;;;11.73;71.90;99657.30;1656095;85;20700;-73
2021/05/04 12:30:49;;;;;;;;;;;;;;;11.67;71.93;99651.48;1654340;85;20291;-74
2021/05/04 12:33:17;;;;;;;;;;;;;;;11.65;71.97;99645.52;1659094;84;20296;-74
2021/05/04 12:35:58;;;;;;;;;;;;;;;11.66;72.08;99637.70;1637024;86;20271;-74
2021/05/04 12:38:33;;;;;;;;;;;;;;;11.61;71.89;99643.48;1639170;85;20532;-74
2021/05/04 12:41:08;;;;;;;;;;;;;;;11.58;71.92;99631.95;1639597;84;20257;-74
2021/05/04 12:43:32;;;;;;;;;;;;;;;11.55;71.82;99630.31;1633848;85;20271;-73
2021/05/04 12:46:17;;;;;;;;;;;;;;;11.52;71.89;99629.13;1634474;86;20264;-73
2021/05/04 12:48:45;;;;;;;;;;;;;;;11.50;71.83;99621.02;1632931;86;20541;-73
2021/05/04 12:51:14;;;;;;;;;;;;;;;11.48;71.91;99605.98;1634537;86;20260;-73
2021/05/04 12:53:45;;;;;;;;;;;;;;;11.43;71.78;99600.16;1633876;86;20290;-73
2021/05/04 12:56:13;;;;;;;;;;;;;;;11.41;71.76;99595.03;1639541;85;20565;-73
2021/05/04 12:59:00;;;;;;;;;;;;;;;11.43;71.75;99588.52;1639663;86;20548;-73
2021/05/04 13:01:34;;;;;;;;;;;;;;;11.47;71.76;99575.83;1640422;86;20252;-73